Portada
METAR-TAF:

METAR-TAF

Aeroports :

Kuching, Malàisia

latitud: 01-29N, longitud: 110-20E, altitud: 27 m

Observació

L'informe es va fer fa 45 minuts, a les 23:00 UTC
Vent 1 kt amb direcció variable
Temperatura 25°C
Humitat 100%
Pressió 1010 hPa
Visibilitat 10 km o més
Escasses núvols a una alçada de 200 ft
Núvols disperses a una alçada de 2000 ft

METAR: WBGG 262300Z VRB01KT 9999 FEW002 SCT020 25/25 Q1010 NOSIG

Hora: 07:45 (23:45 UTC)

Pronòstic

L'informe es va fer fa 45 minuts, a les 23:00 UTC
Pronòstic vàlid del 27 a les 00 UTC al 28 a les 00 UTC
Vent 5 kt del Sud/Sud-Est
Visibilitat 10 km o més
Núvols disperses a una alçada de 2000 ft
Temporalment
l' 27 a les 07 UTC al 27 a les 11 UTC
Vent 6 kt del Nord-Oest
Visibilitat: 4000 m
Escasses núvols a una alçada de 1500 ft, Cumulonimbus.
tempesta, pluja

TAF: WBGG 262300Z 2700/2800 15005KT 9999 SCT020 TEMPO 2707/2711 32006KT 4000 TSRA FEW015CB

Observacions i pronòstics meteorològics de més de 4000 aeroports (METAR i TAF).

Les estacions disponibles són els punts grocs i vermells al mapa.

Posi el ratolí al punt desitjat per veure el nom de l'estació.

Feu clic per veure les observacions i els pronòstics meteorològics.

Per canviar el mapa: feu clic els botons verds amb una creu de color negre per apropar; al botó verd amb un guió per allunyar la imatge; o en les fletxes verdes per a mapes adjacents.


METAR-TAF: